sensor_id;sensor_type;location;lat;lon;timestamp;P1;durP1;ratioP1;P2;durP2;ratioP2
26989;SDS011;14537;47.788;11.858;2023-02-18T00:02:06;1.88;;;0.50;;
26989;SDS011;14537;47.788;11.858;2023-02-18T00:04:32;0.35;;;0.30;;
26989;SDS011;14537;47.788;11.858;2023-02-18T00:06:58;2.22;;;0.45;;
26989;SDS011;14537;47.788;11.858;2023-02-18T00:09:24;0.65;;;0.45;;
26989;SDS011;14537;47.788;11.858;2023-02-18T00:11:49;1.02;;;0.50;;
26989;SDS011;14537;47.788;11.858;2023-02-18T00:14:15;0.85;;;0.43;;
26989;SDS011;14537;47.788;11.858;2023-02-18T00:16:42;0.75;;;0.40;;
26989;SDS011;14537;47.788;11.858;2023-02-18T00:19:10;0.43;;;0.40;;
26989;SDS011;14537;47.788;11.858;2023-02-18T00:21:37;2.65;;;0.50;;
26989;SDS011;14537;47.788;11.858;2023-02-18T00:24:04;1.83;;;0.55;;
26989;SDS011;14537;47.788;11.858;2023-02-18T00:26:31;1.60;;;0.73;;
26989;SDS011;14537;47.788;11.858;2023-02-18T00:28:57;2.05;;;0.60;;
26989;SDS011;14537;47.788;11.858;2023-02-18T00:31:26;0.93;;;0.60;;
26989;SDS011;14537;47.788;11.858;2023-02-18T00:33:55;1.60;;;0.82;;
26989;SDS011;14537;47.788;11.858;2023-02-18T00:36:22;1.67;;;0.80;;
26989;SDS011;14537;47.788;11.858;2023-02-18T00:38:50;6.07;;;0.80;;
26989;SDS011;14537;47.788;11.858;2023-02-18T00:41:17;4.35;;;0.80;;
26989;SDS011;14537;47.788;11.858;2023-02-18T00:43:44;0.85;;;0.50;;
26989;SDS011;14537;47.788;11.858;2023-02-18T00:46:09;2.88;;;1.30;;
26989;SDS011;14537;47.788;11.858;2023-02-18T00:48:35;4.18;;;1.00;;
26989;SDS011;14537;47.788;11.858;2023-02-18T00:51:01;1.00;;;0.70;;
26989;SDS011;14537;47.788;11.858;2023-02-18T00:53:28;2.47;;;1.00;;
26989;SDS011;14537;47.788;11.858;2023-02-18T00:55:55;1.55;;;0.75;;
26989;SDS011;14537;47.788;11.858;2023-02-18T00:58:20;3.90;;;1.15;;
26989;SDS011;14537;47.788;11.858;2023-02-18T01:00:46;1.83;;;0.77;;
26989;SDS011;14537;47.788;11.858;2023-02-18T01:03:13;1.42;;;0.80;;
26989;SDS011;14537;47.788;11.858;2023-02-18T01:05:39;1.17;;;0.65;;
26989;SDS011;14537;47.788;11.858;2023-02-18T01:08:06;3.05;;;0.93;;
26989;SDS011;14537;47.788;11.858;2023-02-18T01:10:32;0.80;;;0.70;;
26989;SDS011;14537;47.788;11.858;2023-02-18T01:12:57;0.65;;;0.60;;
26989;SDS011;14537;47.788;11.858;2023-02-18T01:15:23;0.85;;;0.47;;
26989;SDS011;14537;47.788;11.858;2023-02-18T01:17:49;1.73;;;0.50;;
26989;SDS011;14537;47.788;11.858;2023-02-18T01:20:16;2.28;;;0.55;;
26989;SDS011;14537;47.788;11.858;2023-02-18T01:22:42;1.35;;;1.05;;
26989;SDS011;14537;47.788;11.858;2023-02-18T01:25:08;2.28;;;0.65;;
26989;SDS011;14537;47.788;11.858;2023-02-18T01:27:35;0.73;;;0.60;;
26989;SDS011;14537;47.788;11.858;2023-02-18T01:30:02;1.48;;;0.80;;
26989;SDS011;14537;47.788;11.858;2023-02-18T01:32:29;1.65;;;0.80;;
26989;SDS011;14537;47.788;11.858;2023-02-18T01:34:55;1.42;;;0.70;;
26989;SDS011;14537;47.788;11.858;2023-02-18T01:37:20;1.05;;;0.95;;
26989;SDS011;14537;47.788;11.858;2023-02-18T01:39:46;0.90;;;0.63;;
26989;SDS011;14537;47.788;11.858;2023-02-18T01:42:18;0.90;;;0.50;;
26989;SDS011;14537;47.788;11.858;2023-02-18T01:44:46;2.22;;;0.50;;
26989;SDS011;14537;47.788;11.858;2023-02-18T01:47:13;2.70;;;1.10;;
26989;SDS011;14537;47.788;11.858;2023-02-18T01:49:39;2.95;;;0.85;;
26989;SDS011;14537;47.788;11.858;2023-02-18T01:52:08;1.63;;;0.75;;
26989;SDS011;14537;47.788;11.858;2023-02-18T01:57:22;2.03;;;0.70;;
26989;SDS011;14537;47.788;11.858;2023-02-18T01:59:51;1.27;;;0.90;;
26989;SDS011;14537;47.788;11.858;2023-02-18T02:02:23;1.85;;;0.95;;
26989;SDS011;14537;47.788;11.858;2023-02-18T02:04:52;0.63;;;0.57;;
26989;SDS011;14537;47.788;11.858;2023-02-18T02:07:18;1.10;;;0.70;;
26989;SDS011;14537;47.788;11.858;2023-02-18T02:09:46;3.60;;;1.00;;
26989;SDS011;14537;47.788;11.858;2023-02-18T02:15:38;0.75;;;0.55;;
26989;SDS011;14537;47.788;11.858;2023-02-18T02:26:37;0.70;;;0.60;;
26989;SDS011;14537;47.788;11.858;2023-02-18T02:29:33;1.42;;;0.80;;
26989;SDS011;14537;47.788;11.858;2023-02-18T02:37:58;1.60;;;0.73;;
26989;SDS011;14537;47.788;11.858;2023-02-18T02:46:17;1.70;;;1.00;;
26989;SDS011;14537;47.788;11.858;2023-02-18T02:49:03;2.45;;;0.95;;
26989;SDS011;14537;47.788;11.858;2023-02-18T02:52:04;3.42;;;0.88;;
26989;SDS011;14537;47.788;11.858;2023-02-18T02:54:50;2.08;;;0.82;;
26989;SDS011;14537;47.788;11.858;2023-02-18T02:59:43;5.63;;;1.00;;
26989;SDS011;14537;47.788;11.858;2023-02-18T03:10:42;3.00;;;1.30;;
26989;SDS011;14537;47.788;11.858;2023-02-18T03:18:38;2.92;;;1.25;;
26989;SDS011;14537;47.788;11.858;2023-02-18T03:23:48;4.00;;;1.13;;
26989;SDS011;14537;47.788;11.858;2023-02-18T03:26:25;3.85;;;1.45;;
26989;SDS011;14537;47.788;11.858;2023-02-18T03:28:52;2.38;;;1.20;;
26989;SDS011;14537;47.788;11.858;2023-02-18T03:34:00;4.22;;;1.45;;
26989;SDS011;14537;47.788;11.858;2023-02-18T03:36:33;2.42;;;1.00;;
26989;SDS011;14537;47.788;11.858;2023-02-18T03:39:04;3.63;;;1.30;;
26989;SDS011;14537;47.788;11.858;2023-02-18T03:41:32;1.70;;;1.20;;
26989;SDS011;14537;47.788;11.858;2023-02-18T03:43:59;5.07;;;1.48;;
26989;SDS011;14537;47.788;11.858;2023-02-18T03:46:26;4.55;;;1.70;;
26989;SDS011;14537;47.788;11.858;2023-02-18T03:48:53;2.35;;;1.15;;
26989;SDS011;14537;47.788;11.858;2023-02-18T03:51:18;10.25;;;1.80;;
26989;SDS011;14537;47.788;11.858;2023-02-18T03:53:44;2.78;;;1.10;;
26989;SDS011;14537;47.788;11.858;2023-02-18T03:56:10;1.73;;;1.10;;
26989;SDS011;14537;47.788;11.858;2023-02-18T03:58:36;3.95;;;1.65;;
26989;SDS011;14537;47.788;11.858;2023-02-18T04:01:02;1.98;;;1.25;;
26989;SDS011;14537;47.788;11.858;2023-02-18T04:03:28;3.25;;;1.48;;
26989;SDS011;14537;47.788;11.858;2023-02-18T04:05:54;2.55;;;1.27;;
26989;SDS011;14537;47.788;11.858;2023-02-18T04:08:19;3.78;;;1.65;;
26989;SDS011;14537;47.788;11.858;2023-02-18T04:10:45;2.97;;;1.35;;
26989;SDS011;14537;47.788;11.858;2023-02-18T04:13:11;1.58;;;1.20;;
26989;SDS011;14537;47.788;11.858;2023-02-18T04:15:36;2.60;;;1.50;;
26989;SDS011;14537;47.788;11.858;2023-02-18T04:18:02;2.97;;;1.58;;
26989;SDS011;14537;47.788;11.858;2023-02-18T04:20:28;3.47;;;1.65;;
26989;SDS011;14537;47.788;11.858;2023-02-18T04:22:54;2.38;;;1.25;;
26989;SDS011;14537;47.788;11.858;2023-02-18T04:25:20;2.00;;;1.52;;
26989;SDS011;14537;47.788;11.858;2023-02-18T04:27:45;6.38;;;1.60;;
26989;SDS011;14537;47.788;11.858;2023-02-18T04:30:11;2.85;;;1.45;;
26989;SDS011;14537;47.788;11.858;2023-02-18T04:32:37;3.78;;;1.55;;
26989;SDS011;14537;47.788;11.858;2023-02-18T04:35:03;2.70;;;1.30;;
26989;SDS011;14537;47.788;11.858;2023-02-18T04:37:29;2.92;;;1.50;;
26989;SDS011;14537;47.788;11.858;2023-02-18T04:39:54;3.97;;;1.40;;
26989;SDS011;14537;47.788;11.858;2023-02-18T04:42:20;3.58;;;1.15;;
26989;SDS011;14537;47.788;11.858;2023-02-18T04:44:45;2.47;;;1.30;;
26989;SDS011;14537;47.788;11.858;2023-02-18T04:47:11;1.92;;;1.23;;
26989;SDS011;14537;47.788;11.858;2023-02-18T04:49:37;3.50;;;1.48;;
26989;SDS011;14537;47.788;11.858;2023-02-18T04:52:02;2.78;;;1.65;;
26989;SDS011;14537;47.788;11.858;2023-02-18T04:54:28;2.90;;;1.60;;
26989;SDS011;14537;47.788;11.858;2023-02-18T04:56:54;1.88;;;1.50;;
26989;SDS011;14537;47.788;11.858;2023-02-18T04:59:19;1.85;;;1.42;;
26989;SDS011;14537;47.788;11.858;2023-02-18T05:01:45;3.30;;;1.70;;
26989;SDS011;14537;47.788;11.858;2023-02-18T05:04:11;2.70;;;1.40;;
26989;SDS011;14537;47.788;11.858;2023-02-18T05:06:36;6.10;;;2.38;;
26989;SDS011;14537;47.788;11.858;2023-02-18T05:09:04;5.93;;;1.85;;
26989;SDS011;14537;47.788;11.858;2023-02-18T05:11:30;1.90;;;1.25;;
26989;SDS011;14537;47.788;11.858;2023-02-18T05:13:55;3.45;;;1.58;;
26989;SDS011;14537;47.788;11.858;2023-02-18T05:16:21;3.15;;;1.50;;
26989;SDS011;14537;47.788;11.858;2023-02-18T05:18:47;3.03;;;1.38;;
26989;SDS011;14537;47.788;11.858;2023-02-18T05:21:12;5.85;;;1.85;;
26989;SDS011;14537;47.788;11.858;2023-02-18T05:23:38;3.45;;;1.80;;
26989;SDS011;14537;47.788;11.858;2023-02-18T05:26:03;3.47;;;1.63;;
26989;SDS011;14537;47.788;11.858;2023-02-18T05:28:29;4.03;;;1.60;;
26989;SDS011;14537;47.788;11.858;2023-02-18T05:30:55;3.00;;;1.55;;
26989;SDS011;14537;47.788;11.858;2023-02-18T05:33:20;4.32;;;1.85;;
26989;SDS011;14537;47.788;11.858;2023-02-18T05:35:47;6.20;;;1.83;;
26989;SDS011;14537;47.788;11.858;2023-02-18T05:38:13;5.93;;;2.03;;
26989;SDS011;14537;47.788;11.858;2023-02-18T05:40:38;2.92;;;1.90;;
26989;SDS011;14537;47.788;11.858;2023-02-18T05:43:04;3.70;;;2.15;;
26989;SDS011;14537;47.788;11.858;2023-02-18T05:45:30;6.10;;;2.08;;
26989;SDS011;14537;47.788;11.858;2023-02-18T05:47:55;5.03;;;1.75;;
26989;SDS011;14537;47.788;11.858;2023-02-18T05:50:21;2.55;;;1.60;;
26989;SDS011;14537;47.788;11.858;2023-02-18T05:52:46;3.70;;;2.00;;
26989;SDS011;14537;47.788;11.858;2023-02-18T05:55:12;3.47;;;1.90;;
26989;SDS011;14537;47.788;11.858;2023-02-18T05:57:38;4.97;;;1.80;;
26989;SDS011;14537;47.788;11.858;2023-02-18T06:00:04;2.60;;;1.52;;
26989;SDS011;14537;47.788;11.858;2023-02-18T06:02:32;3.65;;;1.88;;
26989;SDS011;14537;47.788;11.858;2023-02-18T06:04:57;2.80;;;1.70;;
26989;SDS011;14537;47.788;11.858;2023-02-18T06:07:23;6.47;;;1.92;;
26989;SDS011;14537;47.788;11.858;2023-02-18T06:09:48;4.63;;;2.08;;
26989;SDS011;14537;47.788;11.858;2023-02-18T06:12:14;2.47;;;1.70;;
26989;SDS011;14537;47.788;11.858;2023-02-18T06:14:40;3.50;;;1.75;;
26989;SDS011;14537;47.788;11.858;2023-02-18T06:17:06;5.25;;;2.22;;
26989;SDS011;14537;47.788;11.858;2023-02-18T06:19:36;4.05;;;2.20;;
26989;SDS011;14537;47.788;11.858;2023-02-18T06:22:02;5.28;;;2.05;;
26989;SDS011;14537;47.788;11.858;2023-02-18T06:24:28;3.38;;;1.67;;
26989;SDS011;14537;47.788;11.858;2023-02-18T06:26:53;5.38;;;1.60;;
26989;SDS011;14537;47.788;11.858;2023-02-18T06:29:19;2.70;;;1.42;;
26989;SDS011;14537;47.788;11.858;2023-02-18T06:31:44;2.65;;;1.55;;
26989;SDS011;14537;47.788;11.858;2023-02-18T06:34:10;3.60;;;2.00;;
26989;SDS011;14537;47.788;11.858;2023-02-18T06:36:36;4.07;;;1.92;;
26989;SDS011;14537;47.788;11.858;2023-02-18T06:39:02;3.20;;;1.92;;
26989;SDS011;14537;47.788;11.858;2023-02-18T06:41:29;2.78;;;1.42;;
26989;SDS011;14537;47.788;11.858;2023-02-18T06:43:55;5.70;;;1.40;;
26989;SDS011;14537;47.788;11.858;2023-02-18T06:46:20;6.47;;;2.08;;
26989;SDS011;14537;47.788;11.858;2023-02-18T06:48:46;2.35;;;1.33;;
26989;SDS011;14537;47.788;11.858;2023-02-18T06:51:12;4.18;;;1.83;;
26989;SDS011;14537;47.788;11.858;2023-02-18T06:53:38;4.88;;;1.85;;
26989;SDS011;14537;47.788;11.858;2023-02-18T06:56:04;3.65;;;1.85;;
26989;SDS011;14537;47.788;11.858;2023-02-18T06:58:30;6.53;;;1.90;;
26989;SDS011;14537;47.788;11.858;2023-02-18T07:00:55;4.28;;;1.52;;
26989;SDS011;14537;47.788;11.858;2023-02-18T07:03:21;3.38;;;1.60;;
26989;SDS011;14537;47.788;11.858;2023-02-18T07:05:46;3.17;;;1.52;;
26989;SDS011;14537;47.788;11.858;2023-02-18T07:08:12;2.40;;;1.48;;
26989;SDS011;14537;47.788;11.858;2023-02-18T07:10:38;2.35;;;1.40;;
26989;SDS011;14537;47.788;11.858;2023-02-18T07:13:03;2.10;;;1.50;;
26989;SDS011;14537;47.788;11.858;2023-02-18T07:15:29;5.18;;;1.30;;
26989;SDS011;14537;47.788;11.858;2023-02-18T07:17:55;3.75;;;1.92;;
26989;SDS011;14537;47.788;11.858;2023-02-18T07:20:21;2.63;;;1.50;;
26989;SDS011;14537;47.788;11.858;2023-02-18T07:22:46;2.45;;;1.52;;
26989;SDS011;14537;47.788;11.858;2023-02-18T07:25:12;3.38;;;1.65;;
26989;SDS011;14537;47.788;11.858;2023-02-18T07:27:38;2.25;;;1.13;;
26989;SDS011;14537;47.788;11.858;2023-02-18T07:30:04;3.15;;;1.42;;
26989;SDS011;14537;47.788;11.858;2023-02-18T07:32:30;3.55;;;1.60;;
26989;SDS011;14537;47.788;11.858;2023-02-18T07:34:56;3.92;;;1.30;;
26989;SDS011;14537;47.788;11.858;2023-02-18T07:37:21;2.75;;;1.27;;
26989;SDS011;14537;47.788;11.858;2023-02-18T07:39:47;3.83;;;1.67;;
26989;SDS011;14537;47.788;11.858;2023-02-18T07:42:13;6.40;;;1.65;;
26989;SDS011;14537;47.788;11.858;2023-02-18T07:44:39;3.47;;;1.73;;
26989;SDS011;14537;47.788;11.858;2023-02-18T07:47:06;4.63;;;1.52;;
26989;SDS011;14537;47.788;11.858;2023-02-18T07:49:34;2.60;;;1.40;;
26989;SDS011;14537;47.788;11.858;2023-02-18T07:52:00;3.95;;;1.55;;
26989;SDS011;14537;47.788;11.858;2023-02-18T07:54:25;2.78;;;1.40;;
26989;SDS011;14537;47.788;11.858;2023-02-18T07:56:51;6.10;;;1.08;;
26989;SDS011;14537;47.788;11.858;2023-02-18T07:59:18;2.63;;;1.02;;
26989;SDS011;14537;47.788;11.858;2023-02-18T08:01:44;2.03;;;1.17;;
26989;SDS011;14537;47.788;11.858;2023-02-18T08:04:10;3.75;;;1.10;;
26989;SDS011;14537;47.788;11.858;2023-02-18T08:06:37;4.07;;;1.10;;
26989;SDS011;14537;47.788;11.858;2023-02-18T08:09:13;4.38;;;1.42;;
26989;SDS011;14537;47.788;11.858;2023-02-18T08:11:40;3.50;;;1.35;;
26989;SDS011;14537;47.788;11.858;2023-02-18T08:14:05;2.63;;;1.50;;
26989;SDS011;14537;47.788;11.858;2023-02-18T08:16:31;2.75;;;1.27;;
26989;SDS011;14537;47.788;11.858;2023-02-18T08:18:57;1.75;;;1.27;;
26989;SDS011;14537;47.788;11.858;2023-02-18T08:21:23;1.60;;;0.90;;
26989;SDS011;14537;47.788;11.858;2023-02-18T08:23:50;5.80;;;1.02;;
26989;SDS011;14537;47.788;11.858;2023-02-18T08:26:16;2.28;;;1.25;;
26989;SDS011;14537;47.788;11.858;2023-02-18T08:28:43;11.43;;;1.45;;
26989;SDS011;14537;47.788;11.858;2023-02-18T08:31:15;1.60;;;1.00;;
26989;SDS011;14537;47.788;11.858;2023-02-18T08:33:42;5.72;;;1.20;;
26989;SDS011;14537;47.788;11.858;2023-02-18T08:36:08;2.75;;;1.10;;
26989;SDS011;14537;47.788;11.858;2023-02-18T08:38:34;3.25;;;1.00;;
26989;SDS011;14537;47.788;11.858;2023-02-18T08:41:04;2.53;;;1.10;;
26989;SDS011;14537;47.788;11.858;2023-02-18T08:43:31;1.85;;;1.10;;
26989;SDS011;14537;47.788;11.858;2023-02-18T08:45:57;5.93;;;1.20;;
26989;SDS011;14537;47.788;11.858;2023-02-18T08:48:23;1.63;;;1.20;;
26989;SDS011;14537;47.788;11.858;2023-02-18T08:50:49;3.60;;;1.38;;
26989;SDS011;14537;47.788;11.858;2023-02-18T08:53:15;2.00;;;1.30;;
26989;SDS011;14537;47.788;11.858;2023-02-18T08:55:42;1.95;;;1.10;;
26989;SDS011;14537;47.788;11.858;2023-02-18T08:58:08;2.08;;;1.00;;
26989;SDS011;14537;47.788;11.858;2023-02-18T09:00:34;2.75;;;1.08;;
26989;SDS011;14537;47.788;11.858;2023-02-18T09:03:00;1.52;;;1.08;;
26989;SDS011;14537;47.788;11.858;2023-02-18T09:05:26;1.73;;;1.00;;
26989;SDS011;14537;47.788;11.858;2023-02-18T09:07:52;3.30;;;1.00;;
26989;SDS011;14537;47.788;11.858;2023-02-18T09:10:18;1.55;;;0.88;;
26989;SDS011;14537;47.788;11.858;2023-02-18T09:12:43;4.05;;;0.98;;
26989;SDS011;14537;47.788;11.858;2023-02-18T09:15:09;2.30;;;0.98;;
26989;SDS011;14537;47.788;11.858;2023-02-18T09:17:34;1.02;;;0.70;;
26989;SDS011;14537;47.788;11.858;2023-02-18T09:20:00;2.50;;;1.00;;
26989;SDS011;14537;47.788;11.858;2023-02-18T09:22:26;1.83;;;0.77;;
26989;SDS011;14537;47.788;11.858;2023-02-18T09:24:51;2.05;;;0.95;;
26989;SDS011;14537;47.788;11.858;2023-02-18T09:27:17;3.83;;;0.80;;
26989;SDS011;14537;47.788;11.858;2023-02-18T09:29:43;2.63;;;0.82;;
26989;SDS011;14537;47.788;11.858;2023-02-18T09:32:08;2.00;;;0.90;;
26989;SDS011;14537;47.788;11.858;2023-02-18T09:34:36;2.45;;;0.93;;
26989;SDS011;14537;47.788;11.858;2023-02-18T09:37:02;2.63;;;0.90;;
26989;SDS011;14537;47.788;11.858;2023-02-18T09:39:28;1.92;;;1.00;;
26989;SDS011;14537;47.788;11.858;2023-02-18T09:41:54;0.77;;;0.68;;
26989;SDS011;14537;47.788;11.858;2023-02-18T09:44:24;1.40;;;0.73;;
26989;SDS011;14537;47.788;11.858;2023-02-18T09:46:58;1.33;;;0.90;;
26989;SDS011;14537;47.788;11.858;2023-02-18T09:49:48;0.95;;;0.68;;
26989;SDS011;14537;47.788;11.858;2023-02-18T09:52:24;0.70;;;0.60;;
26989;SDS011;14537;47.788;11.858;2023-02-18T09:54:55;2.55;;;0.73;;
26989;SDS011;14537;47.788;11.858;2023-02-18T09:57:23;3.53;;;0.57;;
26989;SDS011;14537;47.788;11.858;2023-02-18T09:59:55;5.20;;;1.25;;
26989;SDS011;14537;47.788;11.858;2023-02-18T10:02:24;1.35;;;0.85;;
26989;SDS011;14537;47.788;11.858;2023-02-18T10:04:50;1.13;;;0.60;;
26989;SDS011;14537;47.788;11.858;2023-02-18T10:07:26;0.68;;;0.50;;
26989;SDS011;14537;47.788;11.858;2023-02-18T10:09:55;0.98;;;0.70;;
26989;SDS011;14537;47.788;11.858;2023-02-18T10:12:24;2.35;;;0.85;;
26989;SDS011;14537;47.788;11.858;2023-02-18T10:14:55;1.25;;;0.73;;
26989;SDS011;14537;47.788;11.858;2023-02-18T10:17:24;1.83;;;0.70;;
26989;SDS011;14537;47.788;11.858;2023-02-18T10:19:52;1.23;;;0.80;;
26989;SDS011;14537;47.788;11.858;2023-02-18T10:22:20;5.75;;;0.52;;
26989;SDS011;14537;47.788;11.858;2023-02-18T10:27:31;3.88;;;0.85;;
26989;SDS011;14537;47.788;11.858;2023-02-18T10:32:39;0.63;;;0.60;;
26989;SDS011;14537;47.788;11.858;2023-02-18T10:38:06;1.05;;;0.70;;
26989;SDS011;14537;47.788;11.858;2023-02-18T10:41:05;1.13;;;0.70;;
26989;SDS011;14537;47.788;11.858;2023-02-18T10:43:53;0.98;;;0.75;;
26989;SDS011;14537;47.788;11.858;2023-02-18T10:46:33;0.88;;;0.57;;
26989;SDS011;14537;47.788;11.858;2023-02-18T10:51:54;1.60;;;0.68;;
26989;SDS011;14537;47.788;11.858;2023-02-18T10:54:25;2.67;;;0.80;;
26989;SDS011;14537;47.788;11.858;2023-02-18T10:56:52;0.95;;;0.60;;
26989;SDS011;14537;47.788;11.858;2023-02-18T10:59:25;2.45;;;0.60;;
26989;SDS011;14537;47.788;11.858;2023-02-18T11:01:58;2.47;;;0.90;;
26989;SDS011;14537;47.788;11.858;2023-02-18T11:04:39;1.83;;;0.73;;
26989;SDS011;14537;47.788;11.858;2023-02-18T11:07:13;1.40;;;0.80;;
26989;SDS011;14537;47.788;11.858;2023-02-18T11:12:14;2.15;;;0.95;;
26989;SDS011;14537;47.788;11.858;2023-02-18T11:14:47;0.82;;;0.65;;
26989;SDS011;14537;47.788;11.858;2023-02-18T11:17:17;0.98;;;0.70;;
26989;SDS011;14537;47.788;11.858;2023-02-18T11:19:51;1.08;;;0.57;;
26989;SDS011;14537;47.788;11.858;2023-02-18T11:22:28;4.78;;;0.75;;
26989;SDS011;14537;47.788;11.858;2023-02-18T11:24:59;1.25;;;0.68;;
26989;SDS011;14537;47.788;11.858;2023-02-18T11:27:31;1.60;;;0.90;;
26989;SDS011;14537;47.788;11.858;2023-02-18T11:30:13;1.40;;;0.63;;
26989;SDS011;14537;47.788;11.858;2023-02-18T11:32:47;2.20;;;0.60;;
26989;SDS011;14537;47.788;11.858;2023-02-18T11:35:16;0.95;;;0.60;;
26989;SDS011;14537;47.788;11.858;2023-02-18T11:37:44;1.67;;;0.55;;
26989;SDS011;14537;47.788;11.858;2023-02-18T11:40:20;2.13;;;0.52;;
26989;SDS011;14537;47.788;11.858;2023-02-18T11:42:59;1.23;;;0.60;;
26989;SDS011;14537;47.788;11.858;2023-02-18T11:45:43;0.82;;;0.70;;
26989;SDS011;14537;47.788;11.858;2023-02-18T11:48:16;0.55;;;0.45;;
26989;SDS011;14537;47.788;11.858;2023-02-18T11:50:43;0.68;;;0.68;;
26989;SDS011;14537;47.788;11.858;2023-02-18T11:56:03;1.25;;;0.50;;
26989;SDS011;14537;47.788;11.858;2023-02-18T11:58:49;1.08;;;0.43;;
26989;SDS011;14537;47.788;11.858;2023-02-18T12:04:03;0.93;;;0.43;;
26989;SDS011;14537;47.788;11.858;2023-02-18T12:09:38;0.43;;;0.43;;
26989;SDS011;14537;47.788;11.858;2023-02-18T12:14:39;1.15;;;0.47;;
26989;SDS011;14537;47.788;11.858;2023-02-18T12:19:59;2.38;;;0.50;;
26989;SDS011;14537;47.788;11.858;2023-02-18T12:22:52;0.82;;;0.45;;
26989;SDS011;14537;47.788;11.858;2023-02-18T12:26:01;0.55;;;0.30;;
26989;SDS011;14537;47.788;11.858;2023-02-18T12:40:35;0.30;;;0.30;;
26989;SDS011;14537;47.788;11.858;2023-02-18T12:54:53;1.75;;;0.40;;
26989;SDS011;14537;47.788;11.858;2023-02-18T13:05:32;4.47;;;1.88;;
26989;SDS011;14537;47.788;11.858;2023-02-18T13:13:53;1.17;;;0.73;;
26989;SDS011;14537;47.788;11.858;2023-02-18T13:16:22;2.50;;;0.40;;
26989;SDS011;14537;47.788;11.858;2023-02-18T13:21:50;1.42;;;0.43;;
26989;SDS011;14537;47.788;11.858;2023-02-18T13:27:13;1.05;;;0.50;;
26989;SDS011;14537;47.788;11.858;2023-02-18T13:40:40;5.00;;;0.40;;
26989;SDS011;14537;47.788;11.858;2023-02-18T13:46:09;4.00;;;0.30;;
26989;SDS011;14537;47.788;11.858;2023-02-18T13:48:39;1.48;;;0.20;;
26989;SDS011;14537;47.788;11.858;2023-02-18T13:51:09;0.80;;;0.75;;
26989;SDS011;14537;47.788;11.858;2023-02-18T13:53:39;0.82;;;0.20;;
26989;SDS011;14537;47.788;11.858;2023-02-18T13:56:09;0.32;;;0.30;;
26989;SDS011;14537;47.788;11.858;2023-02-18T13:58:48;2.00;;;0.82;;
26989;SDS011;14537;47.788;11.858;2023-02-18T14:01:21;0.52;;;0.32;;
26989;SDS011;14537;47.788;11.858;2023-02-18T14:04:01;0.70;;;0.22;;
26989;SDS011;14537;47.788;11.858;2023-02-18T14:06:32;1.45;;;0.38;;
26989;SDS011;14537;47.788;11.858;2023-02-18T14:09:41;0.63;;;0.38;;
26989;SDS011;14537;47.788;11.858;2023-02-18T14:11:52;1.17;;;0.30;;
26989;SDS011;14537;47.788;11.858;2023-02-18T14:14:39;0.47;;;0.35;;
26989;SDS011;14537;47.788;11.858;2023-02-18T14:20:21;0.80;;;0.40;;
26989;SDS011;14537;47.788;11.858;2023-02-18T14:27:45;0.98;;;0.30;;
26989;SDS011;14537;47.788;11.858;2023-02-18T14:30:24;0.35;;;0.20;;
26989;SDS011;14537;47.788;11.858;2023-02-18T14:32:57;0.73;;;0.40;;
26989;SDS011;14537;47.788;11.858;2023-02-18T14:38:28;0.57;;;0.30;;
26989;SDS011;14537;47.788;11.858;2023-02-18T14:46:34;1.40;;;0.43;;
26989;SDS011;14537;47.788;11.858;2023-02-18T14:51:51;3.05;;;0.50;;
26989;SDS011;14537;47.788;11.858;2023-02-18T14:54:19;0.45;;;0.28;;
26989;SDS011;14537;47.788;11.858;2023-02-18T14:56:55;1.90;;;0.38;;
26989;SDS011;14537;47.788;11.858;2023-02-18T14:59:28;5.40;;;0.40;;
26989;SDS011;14537;47.788;11.858;2023-02-18T15:01:58;0.90;;;0.40;;
26989;SDS011;14537;47.788;11.858;2023-02-18T15:04:24;3.50;;;0.47;;
26989;SDS011;14537;47.788;11.858;2023-02-18T15:07:01;3.22;;;0.80;;
26989;SDS011;14537;47.788;11.858;2023-02-18T15:09:28;1.02;;;0.60;;
26989;SDS011;14537;47.788;11.858;2023-02-18T15:14:29;0.90;;;0.43;;
26989;SDS011;14537;47.788;11.858;2023-02-18T15:16:55;1.67;;;0.52;;
26989;SDS011;14537;47.788;11.858;2023-02-18T15:19:23;1.52;;;0.60;;
26989;SDS011;14537;47.788;11.858;2023-02-18T15:21:53;0.52;;;0.52;;
26989;SDS011;14537;47.788;11.858;2023-02-18T15:24:30;0.98;;;0.68;;
26989;SDS011;14537;47.788;11.858;2023-02-18T15:26:59;0.88;;;0.40;;
26989;SDS011;14537;47.788;11.858;2023-02-18T15:29:35;2.97;;;0.40;;
26989;SDS011;14537;47.788;11.858;2023-02-18T15:32:09;1.38;;;0.40;;
26989;SDS011;14537;47.788;11.858;2023-02-18T15:34:53;2.25;;;1.30;;
26989;SDS011;14537;47.788;11.858;2023-02-18T15:37:25;1.10;;;0.50;;
26989;SDS011;14537;47.788;11.858;2023-02-18T15:39:51;0.68;;;0.40;;
26989;SDS011;14537;47.788;11.858;2023-02-18T15:42:25;3.00;;;1.08;;
26989;SDS011;14537;47.788;11.858;2023-02-18T15:47:43;1.77;;;0.88;;
26989;SDS011;14537;47.788;11.858;2023-02-18T15:50:17;0.70;;;0.52;;
26989;SDS011;14537;47.788;11.858;2023-02-18T15:52:46;3.67;;;0.80;;
26989;SDS011;14537;47.788;11.858;2023-02-18T15:55:14;4.47;;;0.70;;
26989;SDS011;14537;47.788;11.858;2023-02-18T15:57:50;0.75;;;0.60;;
26989;SDS011;14537;47.788;11.858;2023-02-18T16:00:19;0.80;;;0.70;;
26989;SDS011;14537;47.788;11.858;2023-02-18T16:03:12;1.15;;;0.70;;
26989;SDS011;14537;47.788;11.858;2023-02-18T16:05:43;3.20;;;1.15;;
26989;SDS011;14537;47.788;11.858;2023-02-18T16:08:30;1.08;;;0.50;;
26989;SDS011;14537;47.788;11.858;2023-02-18T16:10:56;2.22;;;0.77;;
26989;SDS011;14537;47.788;11.858;2023-02-18T16:13:25;2.40;;;1.10;;
26989;SDS011;14537;47.788;11.858;2023-02-18T16:15:53;2.10;;;0.73;;
26989;SDS011;14537;47.788;11.858;2023-02-18T16:18:23;0.80;;;0.55;;
26989;SDS011;14537;47.788;11.858;2023-02-18T16:20:54;1.85;;;0.60;;
26989;SDS011;14537;47.788;11.858;2023-02-18T16:23:29;1.15;;;0.70;;
26989;SDS011;14537;47.788;11.858;2023-02-18T16:26:10;1.38;;;0.80;;
26989;SDS011;14537;47.788;11.858;2023-02-18T16:28:35;5.72;;;1.10;;
26989;SDS011;14537;47.788;11.858;2023-02-18T16:31:06;2.40;;;1.10;;
26989;SDS011;14537;47.788;11.858;2023-02-18T16:33:31;0.73;;;0.70;;
26989;SDS011;14537;47.788;11.858;2023-02-18T16:35:57;4.13;;;1.30;;
26989;SDS011;14537;47.788;11.858;2023-02-18T16:38:23;3.10;;;1.70;;
26989;SDS011;14537;47.788;11.858;2023-02-18T16:40:50;1.45;;;0.90;;
26989;SDS011;14537;47.788;11.858;2023-02-18T16:43:24;2.83;;;1.00;;
26989;SDS011;14537;47.788;11.858;2023-02-18T16:45:54;1.98;;;0.70;;
26989;SDS011;14537;47.788;11.858;2023-02-18T16:50:53;1.92;;;1.00;;
26989;SDS011;14537;47.788;11.858;2023-02-18T16:53:19;1.58;;;1.02;;
26989;SDS011;14537;47.788;11.858;2023-02-18T16:55:45;4.55;;;1.05;;
26989;SDS011;14537;47.788;11.858;2023-02-18T16:58:10;3.42;;;1.50;;
26989;SDS011;14537;47.788;11.858;2023-02-18T17:00:37;1.00;;;0.90;;
26989;SDS011;14537;47.788;11.858;2023-02-18T17:03:03;1.63;;;0.63;;
26989;SDS011;14537;47.788;11.858;2023-02-18T17:05:31;1.05;;;0.70;;
26989;SDS011;14537;47.788;11.858;2023-02-18T17:08:25;2.28;;;1.30;;
26989;SDS011;14537;47.788;11.858;2023-02-18T17:10:53;2.58;;;1.02;;
26989;SDS011;14537;47.788;11.858;2023-02-18T17:13:22;1.60;;;0.90;;
26989;SDS011;14537;47.788;11.858;2023-02-18T17:15:53;1.10;;;0.80;;
26989;SDS011;14537;47.788;11.858;2023-02-18T17:18:20;0.80;;;0.80;;
26989;SDS011;14537;47.788;11.858;2023-02-18T17:20:48;2.65;;;1.13;;
26989;SDS011;14537;47.788;11.858;2023-02-18T17:23:15;1.20;;;0.90;;
26989;SDS011;14537;47.788;11.858;2023-02-18T17:25:42;0.95;;;0.75;;